createdAt,value
2022-12-17T00:01:07.024Z,49.30
2022-12-17T00:03:53.189Z,51.97
2022-12-17T00:06:42.893Z,52.20
2022-12-17T00:09:28.689Z,51.08
2022-12-17T00:12:14.404Z,46.72
2022-12-17T00:14:59.996Z,47.35
2022-12-17T00:17:45.446Z,45.55
2022-12-17T00:20:31.604Z,45.20
2022-12-17T00:23:22.758Z,42.05
2022-12-17T00:26:12.905Z,43.92
2022-12-17T00:28:58.872Z,43.97
2022-12-17T00:31:49.047Z,48.30
2022-12-17T00:34:34.670Z,45.20
2022-12-17T00:37:20.226Z,47.75
2022-12-17T00:40:05.983Z,40.47
2022-12-17T00:42:51.817Z,43.58
2022-12-17T00:45:37.456Z,38.35
2022-12-17T00:48:23.363Z,41.72
2022-12-17T00:51:09.160Z,41.22
2022-12-17T00:53:56.190Z,39.40
2022-12-17T00:56:42.063Z,44.70
2022-12-17T00:59:28.702Z,41.15
2022-12-17T01:02:14.391Z,39.72
2022-12-17T01:04:59.998Z,39.73
2022-12-17T01:07:45.705Z,47.97
2022-12-17T01:10:31.138Z,40.10
2022-12-17T01:13:16.752Z,40.30
2022-12-17T01:16:02.317Z,43.97
2022-12-17T01:18:47.967Z,41.27
2022-12-17T01:21:33.230Z,41.10
2022-12-17T01:24:18.794Z,41.45
2022-12-17T01:27:05.350Z,39.08
2022-12-17T01:29:51.293Z,38.63
2022-12-17T01:32:36.885Z,36.30
2022-12-17T01:35:22.425Z,41.03
2022-12-17T01:41:02.982Z,40.72
2022-12-17T01:43:54.735Z,40.22
2022-12-17T01:46:41.554Z,40.78
2022-12-17T01:49:29.719Z,43.30
2022-12-17T01:52:16.256Z,39.90
2022-12-17T01:57:49.132Z,37.10
2022-12-17T02:00:36.670Z,41.85
2022-12-17T02:03:23.384Z,46.00
2022-12-17T02:06:31.260Z,43.42
2022-12-17T02:09:27.821Z,41.08
2022-12-17T02:12:34.862Z,42.47
2022-12-17T02:15:58.941Z,43.72
2022-12-17T02:18:52.943Z,42.00
2022-12-17T02:21:39.915Z,44.30
2022-12-17T02:24:39.089Z,38.97
2022-12-17T02:27:28.456Z,41.00
2022-12-17T02:30:19.003Z,42.78
2022-12-17T02:33:06.839Z,41.25
2022-12-17T02:36:01.006Z,44.33
2022-12-17T02:38:49.525Z,39.33
2022-12-17T02:41:49.675Z,38.55
2022-12-17T02:44:39.312Z,41.28
2022-12-17T02:47:28.931Z,40.42
2022-12-17T02:50:15.424Z,38.50
2022-12-17T02:53:05.920Z,39.60
2022-12-17T02:55:53.361Z,39.95
2022-12-17T02:58:39.750Z,41.25
2022-12-17T03:01:26.235Z,44.22
2022-12-17T03:06:58.591Z,41.33
2022-12-17T03:12:30.453Z,40.33
2022-12-17T03:15:17.091Z,39.30
2022-12-17T03:18:02.875Z,39.30
2022-12-17T03:20:48.643Z,38.78
2022-12-17T03:23:34.547Z,40.75
2022-12-17T03:26:21.906Z,44.10
2022-12-17T03:29:07.756Z,44.03
2022-12-17T03:31:53.930Z,46.05
2022-12-17T03:34:39.438Z,39.45
2022-12-17T03:37:24.831Z,42.17
2022-12-17T03:40:10.327Z,42.20
2022-12-17T03:42:56.119Z,38.50
2022-12-17T03:45:41.602Z,42.35
2022-12-17T03:48:30.004Z,46.00
2022-12-17T03:51:16.010Z,42.08
2022-12-17T03:54:02.207Z,43.75
2022-12-17T03:56:49.697Z,46.33
2022-12-17T03:59:35.281Z,49.58
2022-12-17T04:02:21.215Z,47.07
2022-12-17T04:05:06.814Z,45.72
2022-12-17T04:07:52.460Z,43.50
2022-12-17T04:10:38.142Z,49.47
2022-12-17T04:13:23.569Z,44.38
2022-12-17T04:16:09.051Z,43.58
2022-12-17T04:18:57.553Z,44.13
2022-12-17T04:21:43.029Z,48.63
2022-12-17T04:24:28.548Z,41.92
2022-12-17T04:27:13.940Z,42.00
2022-12-17T04:29:59.643Z,44.97
2022-12-17T04:32:45.319Z,45.58
2022-12-17T04:35:30.917Z,47.20
2022-12-17T04:38:16.382Z,48.97
2022-12-17T04:41:02.046Z,46.10
2022-12-17T04:43:47.519Z,42.38
2022-12-17T04:46:33.091Z,43.10
2022-12-17T04:49:18.659Z,44.90
2022-12-17T04:52:04.672Z,43.33
2022-12-17T04:54:50.140Z,42.92
2022-12-17T04:57:35.613Z,44.30
2022-12-17T05:00:21.523Z,41.85
2022-12-17T05:03:07.154Z,45.60
2022-12-17T05:05:52.752Z,49.03
2022-12-17T05:08:41.435Z,47.80
2022-12-17T05:11:27.089Z,42.95
2022-12-17T05:14:12.848Z,44.65
2022-12-17T05:17:01.055Z,42.67
2022-12-17T05:19:48.026Z,42.57
2022-12-17T05:22:34.160Z,40.90
2022-12-17T05:25:19.973Z,46.78
2022-12-17T05:28:08.112Z,45.05
2022-12-17T05:30:53.720Z,45.13
2022-12-17T05:33:39.376Z,44.77
2022-12-17T05:36:25.680Z,43.95
2022-12-17T05:39:11.100Z,42.03
2022-12-17T05:41:56.646Z,42.90
2022-12-17T05:44:42.992Z,43.00
2022-12-17T05:47:31.788Z,44.03
2022-12-17T05:50:17.469Z,35.92
2022-12-17T05:53:03.108Z,41.97
2022-12-17T05:55:48.712Z,37.93
2022-12-17T05:58:34.828Z,42.30
2022-12-17T06:01:22.976Z,43.88
2022-12-17T06:04:08.994Z,44.42
2022-12-17T06:06:54.754Z,48.05
2022-12-17T06:09:40.761Z,45.67
2022-12-17T06:12:26.284Z,44.55
2022-12-17T06:15:11.861Z,43.42
2022-12-17T06:17:57.718Z,48.88
2022-12-17T06:20:43.781Z,46.13
2022-12-17T06:23:30.402Z,40.63
2022-12-17T06:26:16.403Z,47.88
2022-12-17T06:29:02.791Z,41.13
2022-12-17T06:31:48.618Z,43.75
2022-12-17T06:34:33.958Z,39.50
2022-12-17T06:37:19.601Z,44.30
2022-12-17T06:40:05.423Z,43.67
2022-12-17T06:42:51.577Z,45.42
2022-12-17T06:45:37.060Z,45.00
2022-12-17T06:48:27.825Z,47.50
2022-12-17T06:51:14.311Z,46.03
2022-12-17T06:54:00.870Z,46.30
2022-12-17T06:59:32.619Z,46.08
2022-12-17T07:02:18.245Z,47.15
2022-12-17T07:05:03.789Z,48.60
2022-12-17T07:07:51.927Z,43.65
2022-12-17T07:10:37.970Z,44.45
2022-12-17T07:13:25.231Z,47.05
2022-12-17T07:16:12.647Z,51.80
2022-12-17T07:18:58.568Z,48.63
2022-12-17T07:21:49.564Z,51.55
2022-12-17T07:24:35.676Z,51.25
2022-12-17T07:27:22.034Z,47.42
2022-12-17T07:30:07.945Z,46.35
2022-12-17T07:32:53.774Z,49.45
2022-12-17T07:35:40.467Z,52.85
2022-12-17T07:38:27.434Z,49.28
2022-12-17T07:41:18.013Z,67.28
2022-12-17T07:44:03.642Z,68.10
2022-12-17T07:46:49.147Z,62.80
2022-12-17T07:49:39.273Z,63.63
2022-12-17T07:52:24.899Z,51.88
2022-12-17T07:55:15.384Z,53.10
2022-12-17T07:58:03.807Z,59.03
2022-12-17T08:00:49.710Z,51.33
2022-12-17T08:03:35.688Z,54.60
2022-12-17T08:06:21.588Z,54.05
2022-12-17T08:09:07.865Z,57.88
2022-12-17T08:14:40.472Z,56.85
2022-12-17T08:17:26.481Z,57.08
2022-12-17T08:20:12.395Z,54.40
2022-12-17T08:22:58.096Z,57.33
2022-12-17T08:25:43.654Z,61.67
2022-12-17T08:31:35.470Z,59.92
2022-12-17T08:34:21.010Z,56.50
2022-12-17T08:37:06.534Z,54.92
2022-12-17T08:39:52.495Z,64.13
2022-12-17T08:42:37.891Z,64.00
2022-12-17T08:45:24.126Z,66.90
2022-12-17T08:48:09.653Z,64.57
2022-12-17T08:50:55.161Z,64.20
2022-12-17T08:53:41.445Z,64.47
2022-12-17T08:59:32.922Z,66.55
2022-12-17T09:02:18.481Z,54.40
2022-12-17T09:05:04.201Z,54.57
2022-12-17T09:07:50.264Z,51.05
2022-12-17T09:10:36.295Z,56.03
2022-12-17T09:13:22.907Z,55.78
2022-12-17T09:16:13.252Z,54.22
2022-12-17T09:18:59.693Z,56.42
2022-12-17T09:21:50.560Z,57.85
2022-12-17T09:24:41.023Z,59.22
2022-12-17T09:27:27.804Z,52.55
2022-12-17T09:30:13.364Z,58.67
2022-12-17T09:32:58.810Z,56.78
2022-12-17T09:35:44.235Z,61.72
2022-12-17T09:38:33.190Z,62.95
2022-12-17T09:41:31.241Z,69.75
2022-12-17T09:44:32.669Z,74.18
2022-12-17T09:47:29.352Z,69.55
2022-12-17T09:50:15.412Z,71.18
2022-12-17T09:53:02.268Z,66.68
2022-12-17T09:56:02.354Z,69.00
2022-12-17T09:58:49.411Z,68.28
2022-12-17T10:01:39.603Z,94.07
2022-12-17T10:04:37.815Z,77.97
2022-12-17T10:07:33.556Z,83.68
2022-12-17T10:10:29.269Z,83.78
2022-12-17T10:13:14.894Z,78.75
2022-12-17T10:16:02.045Z,63.63
2022-12-17T10:18:48.509Z,65.53
2022-12-17T10:21:38.906Z,72.97
2022-12-17T10:24:27.675Z,72.55
2022-12-17T10:27:13.859Z,73.00
2022-12-17T10:30:02.534Z,67.35
2022-12-17T10:32:48.854Z,68.20
2022-12-17T10:35:43.858Z,68.03
2022-12-17T10:38:50.390Z,64.18
2022-12-17T10:41:54.487Z,64.72
2022-12-17T10:44:43.194Z,62.55
2022-12-17T10:47:51.989Z,71.97
2022-12-17T10:50:43.297Z,69.28
2022-12-17T10:53:41.398Z,65.03
2022-12-17T10:56:40.761Z,71.70
2022-12-17T10:59:54.253Z,59.10
2022-12-17T11:02:47.010Z,60.70
2022-12-17T11:05:59.492Z,69.40
2022-12-17T11:08:45.836Z,63.08
2022-12-17T11:11:33.725Z,69.07
2022-12-17T11:14:22.734Z,67.45
2022-12-17T11:17:12.353Z,73.05
2022-12-17T11:20:42.875Z,68.40
2022-12-17T11:23:37.918Z,64.10
2022-12-17T11:26:32.029Z,64.82
2022-12-17T11:29:32.820Z,69.18
2022-12-17T11:32:45.748Z,73.70
2022-12-17T11:35:59.235Z,69.60
2022-12-17T11:39:03.105Z,67.95
2022-12-17T11:42:08.065Z,75.45
2022-12-17T11:45:43.164Z,66.55
2022-12-17T11:48:55.779Z,69.22
2022-12-17T11:51:58.026Z,62.50
2022-12-17T11:54:43.604Z,65.88
2022-12-17T11:57:28.990Z,70.78
2022-12-17T12:00:33.910Z,69.68
2022-12-17T12:03:28.443Z,68.05
2022-12-17T12:06:16.290Z,69.85
2022-12-17T12:09:41.860Z,62.80
2022-12-17T12:12:50.333Z,65.22
2022-12-17T12:15:49.047Z,71.30
2022-12-17T12:19:08.988Z,74.47
2022-12-17T12:22:01.133Z,68.68
2022-12-17T12:25:06.260Z,73.70
2022-12-17T12:28:19.393Z,66.35
2022-12-17T12:31:17.651Z,73.65
2022-12-17T12:34:11.903Z,68.82
2022-12-17T12:37:00.320Z,73.32
2022-12-17T12:40:10.488Z,76.45
2022-12-17T12:43:09.387Z,70.63
2022-12-17T12:46:17.210Z,71.28
2022-12-17T12:49:08.962Z,75.88
2022-12-17T12:52:16.529Z,72.55
2022-12-17T12:55:04.584Z,66.75
2022-12-17T12:57:58.296Z,72.25
2022-12-17T13:00:50.495Z,73.40
2022-12-17T13:03:53.118Z,69.70
2022-12-17T13:06:54.452Z,70.15
2022-12-17T13:09:34.425Z,64.85
2022-12-17T13:12:05.102Z,69.13
2022-12-17T13:14:36.697Z,71.45
2022-12-17T13:17:16.161Z,60.92
2022-12-17T13:19:47.373Z,73.45
2022-12-17T13:22:23.811Z,71.95
2022-12-17T13:25:08.749Z,74.00
2022-12-17T13:27:35.941Z,73.32
2022-12-17T13:30:19.208Z,72.25
2022-12-17T13:33:23.780Z,65.40
2022-12-17T13:36:09.347Z,72.65
2022-12-17T13:38:53.903Z,77.82
2022-12-17T13:41:27.001Z,69.28
2022-12-17T13:44:01.609Z,68.20
2022-12-17T13:46:36.434Z,86.07
2022-12-17T13:49:06.604Z,92.35
2022-12-17T13:51:35.608Z,73.53
2022-12-17T13:54:04.675Z,66.97
2022-12-17T13:56:34.882Z,70.28
2022-12-17T13:59:08.830Z,74.72
2022-12-17T14:01:50.417Z,74.82
2022-12-17T14:04:29.371Z,65.47
2022-12-17T14:06:59.853Z,65.00
2022-12-17T14:09:35.131Z,69.00
2022-12-17T14:12:24.077Z,65.90
2022-12-17T14:15:01.062Z,62.13
2022-12-17T14:17:35.440Z,67.10
2022-12-17T14:20:10.657Z,71.22
2022-12-17T14:22:44.981Z,65.75
2022-12-17T14:25:23.000Z,60.00
2022-12-17T14:28:00.492Z,58.00
2022-12-17T14:30:43.046Z,64.72
2022-12-17T14:33:28.005Z,58.92
2022-12-17T14:36:00.523Z,55.97
2022-12-17T14:38:38.079Z,58.08
2022-12-17T14:41:33.795Z,58.53
2022-12-17T14:44:02.749Z,63.60
2022-12-17T14:46:32.019Z,60.10
2022-12-17T14:49:01.107Z,59.28
2022-12-17T14:51:42.999Z,53.95
2022-12-17T14:54:30.047Z,54.45
2022-12-17T14:56:59.256Z,52.70
2022-12-17T14:59:35.171Z,52.85
2022-12-17T15:02:23.782Z,59.33
2022-12-17T15:04:52.188Z,61.00
2022-12-17T15:07:27.010Z,60.42
2022-12-17T15:09:56.141Z,70.45
2022-12-17T15:12:27.931Z,60.03
2022-12-17T15:14:57.848Z,64.20
2022-12-17T15:17:27.792Z,57.67
2022-12-17T15:19:56.405Z,57.50
2022-12-17T15:22:26.804Z,59.58
2022-12-17T15:24:53.737Z,56.08
2022-12-17T15:27:20.816Z,62.17
2022-12-17T15:29:48.984Z,62.00
2022-12-17T15:32:21.301Z,58.60
2022-12-17T15:34:48.328Z,54.22
2022-12-17T15:37:19.776Z,54.65
2022-12-17T15:39:53.180Z,58.88
2022-12-17T15:42:39.101Z,58.45
2022-12-17T15:45:06.749Z,52.67
2022-12-17T15:47:33.793Z,57.75
2022-12-17T15:50:02.545Z,58.65
2022-12-17T15:52:29.665Z,56.60
2022-12-17T15:54:56.542Z,55.67
2022-12-17T15:57:23.712Z,57.53
2022-12-17T15:59:51.699Z,59.08
2022-12-17T16:02:18.981Z,63.38
2022-12-17T16:04:46.320Z,63.92
2022-12-17T16:07:13.379Z,58.92
2022-12-17T16:09:41.495Z,63.50
2022-12-17T16:12:09.147Z,66.45
2022-12-17T16:14:36.743Z,62.72
2022-12-17T16:17:04.118Z,61.63
2022-12-17T16:19:31.150Z,65.30
2022-12-17T16:21:58.236Z,59.35
2022-12-17T16:24:25.206Z,62.20
2022-12-17T16:26:52.140Z,58.47
2022-12-17T16:29:19.267Z,65.15
2022-12-17T16:31:46.682Z,70.50
2022-12-17T16:34:13.984Z,68.18
2022-12-17T16:36:41.212Z,65.97
2022-12-17T16:39:08.613Z,70.28
2022-12-17T16:41:35.496Z,65.60
2022-12-17T16:44:03.167Z,68.68
2022-12-17T16:46:35.635Z,60.25
2022-12-17T16:49:10.092Z,65.00
2022-12-17T16:51:37.885Z,54.17
2022-12-17T16:54:13.341Z,53.10
2022-12-17T16:56:40.867Z,52.75
2022-12-17T16:59:08.572Z,62.70
2022-12-17T17:01:37.503Z,49.95
2022-12-17T17:04:10.110Z,49.60
2022-12-17T17:06:45.435Z,52.88
2022-12-17T17:09:13.530Z,52.47
2022-12-17T17:11:40.627Z,58.35
2022-12-17T17:14:07.959Z,56.20
2022-12-17T17:16:36.035Z,53.05
2022-12-17T17:19:04.669Z,51.65
2022-12-17T17:21:38.772Z,54.65
2022-12-17T17:24:09.915Z,52.03
2022-12-17T17:26:37.340Z,58.05
2022-12-17T17:29:05.246Z,67.18
2022-12-17T17:32:08.694Z,61.35
2022-12-17T17:34:21.744Z,54.40
2022-12-17T17:36:48.693Z,50.05
2022-12-17T17:39:15.797Z,51.38
2022-12-17T17:41:42.747Z,47.90
2022-12-17T17:44:12.411Z,51.38
2022-12-17T17:46:40.375Z,50.25
2022-12-17T17:49:09.113Z,46.55
2022-12-17T17:54:28.429Z,49.30
2022-12-17T17:56:55.981Z,47.97
2022-12-17T17:59:29.545Z,49.70
2022-12-17T18:02:01.053Z,49.58
2022-12-17T18:04:28.314Z,55.17
2022-12-17T18:09:42.320Z,52.33
2022-12-17T18:12:28.157Z,47.72
2022-12-17T18:15:13.797Z,51.03
2022-12-17T18:17:42.184Z,57.58
2022-12-17T18:20:10.184Z,50.30
2022-12-17T18:22:37.893Z,48.95
2022-12-17T18:25:06.620Z,48.25
2022-12-17T18:27:34.394Z,47.35
2022-12-17T18:30:01.495Z,50.15
2022-12-17T18:32:28.456Z,50.60
2022-12-17T18:34:55.786Z,53.35
2022-12-17T18:37:22.863Z,54.03
2022-12-17T18:39:50.013Z,50.00
2022-12-17T18:42:35.927Z,47.33
2022-12-17T18:45:03.625Z,47.10
2022-12-17T18:47:30.752Z,49.58
2022-12-17T18:49:57.842Z,53.83
2022-12-17T18:52:25.023Z,51.28
2022-12-17T18:54:52.211Z,50.90
2022-12-17T18:57:19.214Z,52.75
2022-12-17T18:59:46.176Z,48.40
2022-12-17T19:02:14.257Z,52.20
2022-12-17T19:04:41.781Z,54.25
2022-12-17T19:07:09.128Z,50.47
2022-12-17T19:09:36.896Z,56.65
2022-12-17T19:12:09.088Z,51.20
2022-12-17T19:14:37.431Z,53.25
2022-12-17T19:17:06.084Z,50.65
2022-12-17T19:19:33.560Z,46.53
2022-12-17T19:22:00.966Z,42.70
2022-12-17T19:24:28.040Z,41.22
2022-12-17T19:26:55.227Z,44.70
2022-12-17T19:29:22.974Z,48.70
2022-12-17T19:31:50.560Z,45.63
2022-12-17T19:34:19.060Z,54.28
2022-12-17T19:36:46.773Z,42.25
2022-12-17T19:39:17.111Z,38.70
2022-12-17T19:41:44.623Z,43.33
2022-12-17T19:44:14.312Z,48.80
2022-12-17T19:46:42.306Z,47.08
2022-12-17T19:49:11.987Z,45.45
2022-12-17T19:51:41.323Z,49.80
2022-12-17T19:54:09.355Z,43.20
2022-12-17T19:56:36.738Z,49.92
2022-12-17T19:59:07.717Z,47.10
2022-12-17T20:01:37.439Z,47.33
2022-12-17T20:04:05.516Z,46.20
2022-12-17T20:06:34.856Z,42.30
2022-12-17T20:09:04.298Z,47.80
2022-12-17T20:11:35.763Z,51.67
2022-12-17T20:14:26.396Z,50.63
2022-12-17T20:16:57.274Z,53.60
2022-12-17T20:19:31.056Z,43.38
2022-12-17T20:22:00.186Z,48.58
2022-12-17T20:24:31.116Z,44.28
2022-12-17T20:27:00.095Z,44.72
2022-12-17T20:29:27.512Z,41.40
2022-12-17T20:31:55.414Z,39.17
2022-12-17T20:34:23.276Z,46.08
2022-12-17T20:36:53.700Z,39.47
2022-12-17T20:39:44.504Z,42.65
2022-12-17T20:42:17.974Z,39.92
2022-12-17T20:44:50.051Z,39.53
2022-12-17T20:47:20.951Z,38.93
2022-12-17T20:49:48.391Z,38.60
2022-12-17T20:52:15.342Z,36.03
2022-12-17T20:54:42.447Z,37.45
2022-12-17T20:57:10.871Z,35.33
2022-12-17T20:59:37.984Z,34.28
2022-12-17T21:02:05.735Z,34.08
2022-12-17T21:04:34.510Z,34.33
2022-12-17T21:07:01.587Z,42.38
2022-12-17T21:09:29.074Z,46.60
2022-12-17T21:11:56.558Z,40.90
2022-12-17T21:14:23.535Z,39.42
2022-12-17T21:16:50.558Z,33.00
2022-12-17T21:19:20.176Z,31.90
2022-12-17T21:21:48.087Z,36.22
2022-12-17T21:24:15.311Z,31.48
2022-12-17T21:26:44.871Z,30.05
2022-12-17T21:29:14.980Z,30.40
2022-12-17T21:31:47.636Z,32.00
2022-12-17T21:34:17.508Z,29.70
2022-12-17T21:36:45.631Z,32.25
2022-12-17T21:39:15.362Z,28.85
2022-12-17T21:42:07.547Z,29.27
2022-12-17T21:44:35.249Z,31.42
2022-12-17T21:47:02.628Z,26.90
2022-12-17T21:49:29.834Z,26.95
2022-12-17T21:51:59.411Z,23.77
2022-12-17T21:54:26.974Z,29.98
2022-12-17T21:56:54.305Z,24.45
2022-12-17T21:59:21.417Z,28.75
2022-12-17T22:01:49.210Z,29.42
2022-12-17T22:04:16.695Z,35.63
2022-12-17T22:06:47.118Z,34.58
2022-12-17T22:09:39.591Z,32.65
2022-12-17T22:12:31.155Z,37.25
2022-12-17T22:14:58.117Z,32.57
2022-12-17T22:17:25.697Z,32.33
2022-12-17T22:19:52.803Z,34.13
2022-12-17T22:22:20.465Z,33.03
2022-12-17T22:24:47.647Z,31.73
2022-12-17T22:27:14.901Z,32.05
2022-12-17T22:30:00.300Z,34.13
2022-12-17T22:32:45.799Z,34.92
2022-12-17T22:36:36.350Z,32.38
2022-12-17T22:42:30.536Z,31.25
2022-12-17T22:44:42.341Z,34.53
2022-12-17T22:44:42.957Z,35.63
2022-12-17T22:46:23.047Z,37.40
2022-12-17T22:48:50.942Z,34.88
2022-12-17T22:51:30.001Z,32.70
2022-12-17T22:54:09.489Z,36.13
2022-12-17T22:57:15.621Z,32.30
2022-12-17T22:59:26.492Z,34.03
2022-12-17T23:01:53.712Z,32.03
2022-12-17T23:04:20.870Z,26.80
2022-12-17T23:06:48.081Z,34.13
2022-12-17T23:09:19.346Z,30.30
2022-12-17T23:11:48.470Z,33.33
2022-12-17T23:14:16.471Z,31.80
2022-12-17T23:16:44.039Z,32.17
2022-12-17T23:19:11.181Z,34.95
2022-12-17T23:21:38.748Z,34.30
2022-12-17T23:24:06.296Z,33.55
2022-12-17T23:26:58.576Z,29.92
2022-12-17T23:29:25.997Z,29.15
2022-12-17T23:31:52.991Z,29.05
2022-12-17T23:34:20.029Z,31.55
2022-12-17T23:36:47.030Z,28.83
2022-12-17T23:39:14.197Z,31.60
2022-12-17T23:41:41.286Z,33.95
2022-12-17T23:44:08.259Z,30.98
2022-12-17T23:46:35.477Z,37.75
2022-12-17T23:49:06.150Z,31.23
2022-12-17T23:51:33.959Z,30.90
2022-12-17T23:54:01.171Z,29.15
2022-12-17T23:56:29.921Z,27.88
2022-12-17T23:58:59.397Z,28.40
